createdAt,value
2018-12-08T00:01:27.247Z,83.91
2018-12-08T00:03:57.747Z,83.62
2018-12-08T00:06:27.679Z,82.68
2018-12-08T00:08:57.590Z,80.84
2018-12-08T00:11:27.348Z,81.81
2018-12-08T00:13:57.164Z,79.56
2018-12-08T00:16:27.559Z,79.81
2018-12-08T00:22:34.084Z,80.20
2018-12-08T00:25:04.575Z,80.64
2018-12-08T00:27:34.526Z,81.14
2018-12-08T00:30:19.991Z,82.36
2018-12-08T00:32:50.095Z,81.64
2018-12-08T00:35:20.095Z,81.40
2018-12-08T00:37:50.009Z,80.10
2018-12-08T00:40:19.914Z,79.08
2018-12-08T00:42:49.808Z,79.09
2018-12-08T00:45:19.672Z,78.31
2018-12-08T00:55:04.980Z,79.25
2018-12-08T00:57:34.992Z,79.86
2018-12-08T01:00:07.275Z,81.81
2018-12-08T01:02:37.221Z,84.09
2018-12-08T01:05:08.332Z,86.45
2018-12-08T01:07:38.554Z,86.93
2018-12-08T01:10:08.947Z,88.07
2018-12-08T01:12:38.784Z,89.13
2018-12-08T01:15:09.343Z,87.25
2018-12-08T01:17:39.849Z,87.90
2018-12-08T01:20:10.841Z,88.55
2018-12-08T01:22:40.741Z,88.62
2018-12-08T01:25:10.729Z,88.21
2018-12-08T01:27:41.078Z,87.47
2018-12-08T01:30:11.655Z,85.96
2018-12-08T01:32:42.184Z,85.52
2018-12-08T01:35:12.101Z,84.43
2018-12-08T01:37:41.991Z,84.55
2018-12-08T01:40:11.948Z,84.00
2018-12-08T01:42:41.911Z,83.91
2018-12-08T01:45:12.733Z,83.67
2018-12-08T01:47:42.703Z,81.82
2018-12-08T01:50:12.589Z,80.30
2018-12-08T01:52:42.590Z,80.16
2018-12-08T01:55:12.464Z,79.54
2018-12-08T01:57:42.792Z,80.00
2018-12-08T02:00:14.087Z,78.66
2018-12-08T02:02:44.426Z,75.99
2018-12-08T02:05:14.862Z,74.88
2018-12-08T02:07:44.718Z,73.90
2018-12-08T02:10:15.436Z,71.85
2018-12-08T02:12:45.375Z,72.69
2018-12-08T02:15:15.336Z,72.86
2018-12-08T02:17:45.340Z,72.24
2018-12-08T02:20:16.316Z,71.68
2018-12-08T02:22:46.112Z,72.38
2018-12-08T02:25:15.909Z,72.61
2018-12-08T02:27:45.898Z,72.09
2018-12-08T02:30:16.356Z,71.94
2018-12-08T02:32:46.209Z,72.47
2018-12-08T02:35:16.467Z,72.47
2018-12-08T02:37:46.249Z,72.52
2018-12-08T02:40:17.175Z,72.24
2018-12-08T02:42:47.060Z,72.53
2018-12-08T02:45:17.616Z,72.16
2018-12-08T02:47:47.513Z,71.64
2018-12-08T02:50:17.352Z,72.12
2018-12-08T02:52:47.399Z,72.69
2018-12-08T02:55:17.258Z,74.35
2018-12-08T02:57:47.224Z,75.42
2018-12-08T03:00:17.604Z,75.82
2018-12-08T03:02:47.451Z,76.15
2018-12-08T03:06:18.127Z,76.23
2018-12-08T03:08:48.008Z,76.69
2018-12-08T03:11:19.134Z,77.22
2018-12-08T03:13:48.980Z,77.38
2018-12-08T03:16:18.755Z,76.61
2018-12-08T03:18:48.783Z,76.23
2018-12-08T03:21:18.854Z,76.02
2018-12-08T03:23:48.649Z,75.83
2018-12-08T03:26:18.518Z,75.62
2018-12-08T03:28:48.421Z,75.30
2018-12-08T03:31:18.375Z,75.12
2018-12-08T03:33:49.562Z,74.78
2018-12-08T03:36:19.635Z,74.79
2018-12-08T03:38:50.052Z,74.85
2018-12-08T03:41:20.012Z,74.46
2018-12-08T03:43:49.853Z,74.15
2018-12-08T03:46:19.654Z,74.25
2018-12-08T03:48:49.472Z,74.28
2018-12-08T03:51:19.310Z,73.99
2018-12-08T03:53:49.330Z,74.40
2018-12-08T03:56:19.209Z,74.70
2018-12-08T03:58:49.043Z,73.86
2018-12-08T04:01:18.908Z,74.10
2018-12-08T04:03:48.712Z,72.87
2018-12-08T04:06:18.752Z,72.83
2018-12-08T04:08:48.575Z,73.48
2018-12-08T04:11:18.387Z,73.80
2018-12-08T04:13:48.536Z,73.85
2018-12-08T04:16:18.795Z,73.85
2018-12-08T04:18:48.975Z,73.41
2018-12-08T04:21:18.788Z,73.96
2018-12-08T04:23:48.613Z,73.52
2018-12-08T04:26:18.554Z,73.87
2018-12-08T04:28:48.429Z,72.83
2018-12-08T04:31:18.305Z,72.88
2018-12-08T04:33:48.122Z,72.66
2018-12-08T04:36:18.006Z,72.73
2018-12-08T04:38:47.825Z,72.94
2018-12-08T04:41:17.643Z,73.26
2018-12-08T04:43:47.447Z,73.56
2018-12-08T04:46:18.077Z,73.35
2018-12-08T04:52:23.599Z,72.73
2018-12-08T04:54:53.459Z,73.61
2018-12-08T04:57:23.257Z,73.18
2018-12-08T04:59:53.139Z,73.16
2018-12-08T05:02:23.088Z,73.39
2018-12-08T05:04:52.938Z,72.54
2018-12-08T05:07:22.738Z,72.65
2018-12-08T05:09:52.510Z,72.10
2018-12-08T05:12:22.301Z,72.71
2018-12-08T05:14:52.204Z,72.03
2018-12-08T05:17:22.829Z,71.93
2018-12-08T05:19:52.796Z,72.51
2018-12-08T05:22:22.614Z,72.02
2018-12-08T05:24:52.526Z,71.99
2018-12-08T05:27:23.204Z,71.95
2018-12-08T05:29:53.822Z,71.99
2018-12-08T05:32:23.692Z,71.15
2018-12-08T05:34:53.508Z,71.35
2018-12-08T05:37:23.400Z,71.07
2018-12-08T05:39:53.366Z,71.14
2018-12-08T05:42:23.144Z,71.45
2018-12-08T05:44:53.017Z,71.28
2018-12-08T05:47:22.836Z,71.35
2018-12-08T05:49:53.140Z,70.55
2018-12-08T05:52:23.478Z,70.16
2018-12-08T05:54:53.355Z,70.50
2018-12-08T05:57:23.187Z,70.56
2018-12-08T05:59:53.013Z,69.81
2018-12-08T06:02:22.901Z,70.04
2018-12-08T06:04:52.990Z,69.95
2018-12-08T06:07:23.384Z,70.24
2018-12-08T06:09:53.179Z,69.49
2018-12-08T06:12:24.036Z,69.69
2018-12-08T06:14:53.861Z,69.90
2018-12-08T06:17:23.767Z,69.43
2018-12-08T06:19:53.731Z,69.85
2018-12-08T06:22:23.529Z,69.09
2018-12-08T06:24:53.565Z,69.32
2018-12-08T06:27:53.004Z,69.21
2018-12-08T06:45:16.829Z,68.88
2018-12-08T06:47:46.810Z,69.54
2018-12-08T06:50:16.703Z,69.36
2018-12-08T06:52:46.537Z,69.67
2018-12-08T06:55:16.400Z,69.09
2018-12-08T06:57:46.329Z,68.77
2018-12-08T07:00:16.152Z,69.01
2018-12-08T07:02:45.947Z,68.46
2018-12-08T07:05:15.839Z,68.13
2018-12-08T07:07:45.642Z,67.99
2018-12-08T07:11:16.785Z,67.92
2018-12-08T07:13:46.693Z,67.46
2018-12-08T07:16:16.862Z,68.35
2018-12-08T07:18:46.736Z,68.47
2018-12-08T07:21:17.231Z,69.69
2018-12-08T07:23:47.086Z,70.26
2018-12-08T07:26:16.960Z,69.64
2018-12-08T07:28:46.838Z,69.76
2018-12-08T07:31:17.101Z,69.30
2018-12-08T07:33:47.029Z,69.67
2018-12-08T07:36:16.878Z,69.88
2018-12-08T07:38:46.730Z,70.59
2018-12-08T07:41:16.648Z,70.44
2018-12-08T07:43:46.697Z,70.50
2018-12-08T07:46:16.574Z,70.52
2018-12-08T07:48:46.423Z,70.92
2018-12-08T07:51:16.339Z,71.03
2018-12-08T07:53:46.227Z,71.26
2018-12-08T07:56:15.997Z,71.22
2018-12-08T07:58:46.454Z,71.49
2018-12-08T08:01:16.252Z,71.72
2018-12-08T08:03:46.139Z,71.79
2018-12-08T08:06:15.994Z,71.58
2018-12-08T08:08:45.840Z,72.02
2018-12-08T08:11:16.262Z,71.52
2018-12-08T08:13:46.209Z,71.33
2018-12-08T08:16:16.084Z,71.95
2018-12-08T08:18:46.039Z,71.79
2018-12-08T08:21:16.007Z,74.02
2018-12-08T08:23:46.101Z,75.83
2018-12-08T08:26:16.028Z,75.59
2018-12-08T08:28:46.033Z,75.37
2018-12-08T08:31:15.929Z,75.25
2018-12-08T08:33:45.831Z,75.69
2018-12-08T08:36:15.682Z,75.35
2018-12-08T08:38:45.585Z,74.89
2018-12-08T08:41:15.456Z,74.25
2018-12-08T08:43:45.290Z,73.52
2018-12-08T08:46:15.654Z,72.52
2018-12-08T08:48:45.437Z,72.11
2018-12-08T08:51:15.753Z,71.69
2018-12-08T08:53:45.788Z,73.06
2018-12-08T08:56:15.921Z,72.43
2018-12-08T08:58:46.888Z,72.84
2018-12-08T09:01:16.806Z,71.92
2018-12-08T09:03:46.764Z,72.91
2018-12-08T09:06:16.725Z,73.19
2018-12-08T09:08:46.724Z,73.33
2018-12-08T09:11:16.685Z,72.49
2018-12-08T09:13:46.562Z,72.32
2018-12-08T09:16:16.407Z,72.74
2018-12-08T09:18:46.433Z,72.62
2018-12-08T09:21:16.482Z,72.43
2018-12-08T09:23:46.448Z,72.20
2018-12-08T09:26:16.371Z,72.62
2018-12-08T09:28:46.338Z,72.66
2018-12-08T09:31:16.499Z,72.67
2018-12-08T09:33:46.526Z,72.01
2018-12-08T09:36:16.390Z,71.70
2018-12-08T09:38:47.020Z,72.14
2018-12-08T09:41:17.071Z,72.07
2018-12-08T09:43:47.476Z,72.14
2018-12-08T09:46:17.575Z,72.06
2018-12-08T09:48:47.538Z,71.75
2018-12-08T09:51:17.551Z,72.37
2018-12-08T09:53:48.366Z,71.53
2018-12-08T09:56:18.539Z,71.37
2018-12-08T09:58:48.526Z,71.60
2018-12-08T10:01:18.490Z,71.44
2018-12-08T10:03:49.139Z,71.38
2018-12-08T10:06:19.567Z,70.98
2018-12-08T10:08:49.533Z,70.35
2018-12-08T10:11:19.493Z,70.14
2018-12-08T10:13:49.515Z,70.98
2018-12-08T10:16:19.587Z,70.48
2018-12-08T10:26:01.196Z,71.10
2018-12-08T10:28:31.272Z,71.23
2018-12-08T10:31:01.873Z,71.12
2018-12-08T10:33:32.804Z,69.56
2018-12-08T10:36:03.078Z,70.11
2018-12-08T10:46:19.842Z,69.69
2018-12-08T10:48:49.805Z,69.55
2018-12-08T10:51:20.461Z,68.72
2018-12-08T10:53:50.953Z,68.10
2018-12-08T10:56:20.961Z,68.17
2018-12-08T10:58:52.033Z,68.08
2018-12-08T11:01:27.572Z,67.41
2018-12-08T11:03:58.745Z,67.04
2018-12-08T11:06:28.793Z,66.77
2018-12-08T11:08:58.808Z,66.35
2018-12-08T11:18:40.189Z,68.11
2018-12-08T11:21:10.389Z,68.66
2018-12-08T11:23:40.449Z,68.87
2018-12-08T11:26:10.503Z,68.70
2018-12-08T11:28:40.437Z,68.75
2018-12-08T11:38:21.975Z,68.63
2018-12-08T11:40:51.811Z,68.85
2018-12-08T11:43:23.489Z,69.00
2018-12-08T11:45:53.783Z,68.73
2018-12-08T11:48:23.668Z,69.39
2018-12-08T11:55:19.107Z,70.42
2018-12-08T11:57:49.183Z,70.73
2018-12-08T12:00:19.041Z,70.59
2018-12-08T12:02:48.803Z,70.90
2018-12-08T12:05:18.719Z,70.80
2018-12-08T12:15:00.386Z,70.78
2018-12-08T12:17:30.245Z,70.28
2018-12-08T12:20:00.045Z,70.77
2018-12-08T12:22:29.913Z,70.95
2018-12-08T12:25:00.229Z,70.69
2018-12-08T12:34:41.261Z,70.64
2018-12-08T12:37:11.101Z,70.89
2018-12-08T12:39:40.939Z,69.89
2018-12-08T12:42:10.831Z,70.82
2018-12-08T12:44:40.659Z,71.30
2018-12-08T13:00:23.917Z,74.58
2018-12-08T13:13:41.265Z,74.93
2018-12-08T13:16:11.094Z,74.26
2018-12-08T13:18:40.999Z,73.15
2018-12-08T13:21:10.869Z,73.59
2018-12-08T13:23:41.110Z,72.30
2018-12-08T13:26:11.121Z,72.62
2018-12-08T13:28:41.087Z,72.42
2018-12-08T13:31:10.973Z,72.38
2018-12-08T13:33:41.491Z,70.80
2018-12-08T13:36:12.642Z,70.83
2018-12-08T13:38:43.812Z,70.30
2018-12-08T13:41:17.754Z,70.38
2018-12-08T13:43:56.085Z,70.23
2018-12-08T13:46:25.977Z,69.87
2018-12-08T13:48:55.975Z,70.85
2018-12-08T13:51:26.006Z,70.52
2018-12-08T13:53:55.904Z,70.54
2018-12-08T13:56:25.786Z,71.30
2018-12-08T13:58:55.679Z,72.07
2018-12-08T14:01:25.570Z,71.57
2018-12-08T14:07:30.891Z,76.89
2018-12-08T14:10:00.934Z,77.71
2018-12-08T14:12:30.924Z,79.05
2018-12-08T14:15:00.822Z,78.97
2018-12-08T14:17:30.803Z,80.61
2018-12-08T14:23:36.061Z,81.07
2018-12-08T14:26:06.011Z,81.56
2018-12-08T14:28:36.320Z,82.15
2018-12-08T14:31:06.301Z,83.22
2018-12-08T14:33:36.213Z,83.39
2018-12-08T14:36:06.440Z,84.36
2018-12-08T14:38:36.504Z,84.10
2018-12-08T14:41:06.436Z,84.02
2018-12-08T14:43:36.389Z,83.47
2018-12-08T14:46:06.870Z,83.24
2018-12-08T14:48:36.900Z,83.19
2018-12-08T14:51:09.282Z,83.38
2018-12-08T14:53:39.338Z,81.46
2018-12-08T14:56:10.593Z,81.56
2018-12-08T14:58:40.641Z,80.63
2018-12-08T15:01:10.671Z,80.37
2018-12-08T15:03:41.348Z,80.04
2018-12-08T15:06:11.329Z,79.62
2018-12-08T15:08:41.191Z,79.77
2018-12-08T15:11:11.103Z,79.44
2018-12-08T15:13:42.587Z,78.50
2018-12-08T15:16:12.554Z,78.95
2018-12-08T15:18:43.191Z,78.86
2018-12-08T15:21:13.097Z,78.98
2018-12-08T15:23:42.953Z,78.33
2018-12-08T15:26:14.920Z,78.92
2018-12-08T15:28:46.439Z,78.92
2018-12-08T15:31:17.100Z,78.91
2018-12-08T15:33:47.699Z,79.33
2018-12-08T15:36:17.621Z,79.54
2018-12-08T15:38:48.831Z,79.59
2018-12-08T15:41:18.768Z,79.46
2018-12-08T15:43:48.621Z,80.21
2018-12-08T15:46:18.999Z,80.05
2018-12-08T15:48:48.953Z,79.94
2018-12-08T15:51:18.763Z,79.38
2018-12-08T15:53:48.554Z,79.95
2018-12-08T15:59:53.879Z,79.57
2018-12-08T16:02:24.254Z,79.33
2018-12-08T16:04:54.317Z,78.91
2018-12-08T16:07:24.117Z,79.07
2018-12-08T16:09:54.018Z,78.60
2018-12-08T16:12:23.851Z,78.67
2018-12-08T16:14:54.334Z,78.55
2018-12-08T16:17:25.169Z,78.50
2018-12-08T16:19:55.462Z,78.09
2018-12-08T16:22:25.623Z,78.23
2018-12-08T16:24:55.421Z,78.53
2018-12-08T16:27:25.900Z,79.16
2018-12-08T16:29:55.960Z,78.79
2018-12-08T16:33:17.136Z,79.05
2018-12-08T16:35:47.327Z,78.27
2018-12-08T16:38:17.803Z,77.34
2018-12-08T16:40:49.199Z,77.29
2018-12-08T16:43:19.148Z,76.91
2018-12-08T16:45:49.438Z,76.61
2018-12-08T16:48:19.312Z,76.35
2018-12-08T16:50:49.180Z,76.66
2018-12-08T17:00:30.204Z,76.55
2018-12-08T17:03:00.062Z,75.76
2018-12-08T17:05:30.011Z,76.07
2018-12-08T17:08:00.256Z,76.12
2018-12-08T17:10:30.622Z,76.08
2018-12-08T17:13:00.610Z,76.24
2018-12-08T17:15:30.871Z,76.27
2018-12-08T17:18:00.979Z,76.29
2018-12-08T17:20:30.915Z,76.65
2018-12-08T17:23:00.883Z,76.54
2018-12-08T17:25:30.971Z,76.45
2018-12-08T17:28:00.864Z,76.33
2018-12-08T17:30:30.794Z,75.82
2018-12-08T17:33:00.705Z,76.00
2018-12-08T17:35:30.527Z,76.12
2018-12-08T17:42:17.371Z,76.39
2018-12-08T17:44:47.357Z,76.53
2018-12-08T17:47:17.203Z,76.71
2018-12-08T17:49:47.115Z,76.43
2018-12-08T17:52:16.949Z,76.51
2018-12-08T17:54:50.137Z,76.79
2018-12-08T17:57:20.081Z,76.78
2018-12-08T17:59:50.121Z,77.02
2018-12-08T18:02:20.341Z,77.24
2018-12-08T18:04:50.354Z,77.37
2018-12-08T18:07:20.711Z,77.18
2018-12-08T18:09:50.557Z,77.11
2018-12-08T18:12:21.587Z,76.87
2018-12-08T18:14:51.489Z,76.53
2018-12-08T18:17:21.780Z,77.13
2018-12-08T18:19:51.731Z,77.31
2018-12-08T18:22:22.464Z,78.54
2018-12-08T18:24:52.804Z,79.58
2018-12-08T18:27:22.641Z,80.04
2018-12-08T18:29:52.521Z,81.37
2018-12-08T18:32:22.729Z,82.10
2018-12-08T18:34:52.565Z,82.14
2018-12-08T18:37:22.879Z,82.72
2018-12-08T18:39:52.699Z,83.23
2018-12-08T18:42:22.521Z,83.55
2018-12-08T18:44:52.518Z,84.85
2018-12-08T18:47:22.501Z,84.82
2018-12-08T18:49:52.631Z,85.21
2018-12-08T18:52:22.517Z,84.56
2018-12-08T18:54:52.370Z,84.88
2018-12-08T19:00:58.165Z,85.18
2018-12-08T19:03:28.009Z,84.92
2018-12-08T19:05:57.929Z,85.12
2018-12-08T19:08:27.903Z,85.87
2018-12-08T19:10:57.739Z,87.09
2018-12-08T19:13:27.751Z,86.81
2018-12-08T19:15:57.619Z,88.23
2018-12-08T19:18:27.780Z,88.11
2018-12-08T19:20:57.641Z,87.84
2018-12-08T19:23:27.535Z,87.73
2018-12-08T19:29:32.961Z,87.75
2018-12-08T19:32:02.819Z,87.35
2018-12-08T19:34:32.717Z,86.63
2018-12-08T19:37:02.572Z,86.96
2018-12-08T19:39:32.455Z,85.74
2018-12-08T19:42:02.507Z,85.02
2018-12-08T19:44:32.413Z,84.87
2018-12-08T19:47:02.297Z,85.52
2018-12-08T19:49:32.204Z,85.34
2018-12-08T19:52:02.175Z,85.23
2018-12-08T19:58:08.287Z,85.82
2018-12-08T20:00:38.263Z,85.33
2018-12-08T20:03:08.201Z,85.04
2018-12-08T20:05:38.060Z,85.13
2018-12-08T20:08:07.955Z,84.79
2018-12-08T20:10:39.217Z,84.88
2018-12-08T20:13:09.011Z,84.80
2018-12-08T20:15:39.699Z,84.74
2018-12-08T20:18:09.789Z,85.62
2018-12-08T20:20:39.682Z,85.23
2018-12-08T20:23:09.733Z,84.99
2018-12-08T20:25:39.627Z,85.46
2018-12-08T20:28:09.441Z,85.11
2018-12-08T20:30:39.300Z,85.69
2018-12-08T20:33:09.474Z,86.21
2018-12-08T20:40:15.397Z,88.71
2018-12-08T20:42:45.257Z,89.95
2018-12-08T20:45:15.097Z,90.14
2018-12-08T20:47:44.912Z,90.91
2018-12-08T20:50:14.820Z,91.33
2018-12-08T20:52:44.743Z,91.24
2018-12-08T20:55:15.084Z,91.35
2018-12-08T20:57:44.951Z,91.07
2018-12-08T21:00:15.488Z,90.17
2018-12-08T21:02:48.033Z,89.81
2018-12-08T21:05:17.824Z,89.10
2018-12-08T21:07:47.747Z,89.09
2018-12-08T21:10:17.629Z,88.37
2018-12-08T21:12:47.982Z,87.40
2018-12-08T21:15:19.118Z,87.45
2018-12-08T21:17:48.999Z,87.09
2018-12-08T21:20:19.050Z,88.08
2018-12-08T21:22:48.987Z,87.98
2018-12-08T21:25:19.040Z,88.97
2018-12-08T21:27:48.930Z,89.38
2018-12-08T21:30:18.915Z,90.11
2018-12-08T21:32:48.813Z,90.42
2018-12-08T21:35:19.428Z,89.68
2018-12-08T21:37:49.308Z,90.15
2018-12-08T21:40:29.132Z,90.88
2018-12-08T21:42:59.155Z,90.68
2018-12-08T21:49:05.726Z,91.32
2018-12-08T21:51:35.661Z,91.62
2018-12-08T21:54:06.116Z,90.88
2018-12-08T21:56:36.163Z,90.67
2018-12-08T21:59:06.386Z,91.68
2018-12-08T22:01:37.411Z,91.20
2018-12-08T22:04:07.320Z,92.50
2018-12-08T22:06:38.900Z,93.16
2018-12-08T22:09:09.173Z,93.87
2018-12-08T22:11:39.050Z,94.53
2018-12-08T22:17:44.871Z,95.42
2018-12-08T22:20:14.833Z,95.47
2018-12-08T22:22:44.758Z,94.40
2018-12-08T22:25:14.795Z,94.06
2018-12-08T22:27:44.698Z,92.89
2018-12-08T22:30:14.769Z,92.28
2018-12-08T22:32:44.666Z,91.69
2018-12-08T22:35:14.578Z,91.90
2018-12-08T22:37:44.456Z,90.48
2018-12-08T22:40:14.954Z,90.24
2018-12-08T22:42:44.770Z,89.71
2018-12-08T22:45:15.091Z,89.20
2018-12-08T22:47:45.381Z,89.33
2018-12-08T22:50:15.275Z,88.18
2018-12-08T22:52:45.295Z,88.18
2018-12-08T22:55:15.181Z,87.33
2018-12-08T22:57:45.038Z,87.35
2018-12-08T23:00:34.751Z,87.28
2018-12-08T23:03:04.669Z,87.78
2018-12-08T23:05:35.322Z,87.43
2018-12-08T23:08:05.219Z,86.50
2018-12-08T23:10:35.181Z,85.67
2018-12-08T23:13:05.014Z,86.17
2018-12-08T23:15:34.857Z,85.90
2018-12-08T23:21:40.155Z,85.06
2018-12-08T23:24:10.678Z,85.14
2018-12-08T23:26:42.267Z,85.48
2018-12-08T23:29:12.140Z,85.17
2018-12-08T23:31:41.993Z,85.58
2018-12-08T23:34:11.972Z,85.02
2018-12-08T23:36:42.229Z,84.49
2018-12-08T23:39:12.209Z,84.13
2018-12-08T23:41:42.076Z,84.27
2018-12-08T23:44:11.883Z,83.95
2018-12-08T23:46:41.750Z,83.97
2018-12-08T23:49:11.669Z,84.13
2018-12-08T23:51:41.519Z,83.82
2018-12-08T23:54:11.424Z,83.84
2018-12-08T23:56:41.399Z,83.75
2018-12-08T23:59:11.231Z,83.30
